地図

経路データ

SID SEASON NUMBER BASIN SUBBASIN NAME ISO_TIME NATURE LAT LON WMO_WIND WMO_PRES WMO_AGENCY TRACK_TYPE DIST2LAND LANDFALL IFLAG USA_AGENCY USA_ATCF_ID USA_LAT USA_LON USA_RECORD USA_STATUS USA_WIND USA_PRES USA_SSHS USA_R34_NE USA_R34_SE USA_R34_SW USA_R34_NW USA_R50_NE USA_R50_SE USA_R50_SW USA_R50_NW USA_R64_NE USA_R64_SE USA_R64_SW USA_R64_NW USA_POCI USA_ROCI USA_RMW USA_EYE TOKYO_LAT TOKYO_LON TOKYO_GRADE TOKYO_WIND TOKYO_PRES TOKYO_R50_DIR TOKYO_R50_LONG TOKYO_R50_SHORT TOKYO_R30_DIR TOKYO_R30_LONG TOKYO_R30_SHORT TOKYO_LAND CMA_LAT CMA_LON CMA_CAT CMA_WIND CMA_PRES HKO_LAT HKO_LON HKO_CAT HKO_WIND HKO_PRES NEWDELHI_LAT NEWDELHI_LON NEWDELHI_GRADE NEWDELHI_WIND NEWDELHI_PRES NEWDELHI_CI NEWDELHI_DP NEWDELHI_POCI REUNION_LAT REUNION_LON REUNION_TYPE REUNION_WIND REUNION_PRES REUNION_TNUM REUNION_CI REUNION_RMW REUNION_R34_NE REUNION_R34_SE REUNION_R34_SW REUNION_R34_NW REUNION_R50_NE REUNION_R50_SE REUNION_R50_SW REUNION_R50_NW REUNION_R64_NE REUNION_R64_SE REUNION_R64_SW REUNION_R64_NW BOM_LAT BOM_LON BOM_TYPE BOM_WIND BOM_PRES BOM_TNUM BOM_CI BOM_RMW BOM_R34_NE BOM_R34_SE BOM_R34_SW BOM_R34_NW BOM_R50_NE BOM_R50_SE BOM_R50_SW BOM_R50_NW BOM_R64_NE BOM_R64_SE BOM_R64_SW BOM_R64_NW BOM_ROCI BOM_POCI BOM_EYE BOM_POS_METHOD BOM_PRES_METHOD NADI_LAT NADI_LON NADI_CAT NADI_WIND NADI_PRES WELLINGTON_LAT WELLINGTON_LON WELLINGTON_WIND WELLINGTON_PRES DS824_LAT DS824_LON DS824_STAGE DS824_WIND DS824_PRES TD9636_LAT TD9636_LON TD9636_STAGE TD9636_WIND TD9636_PRES TD9635_LAT TD9635_LON TD9635_WIND TD9635_PRES TD9635_ROCI NEUMANN_LAT NEUMANN_LON NEUMANN_CLASS NEUMANN_WIND NEUMANN_PRES MLC_LAT MLC_LON MLC_CLASS MLC_WIND MLC_PRES USA_GUST BOM_GUST BOM_GUST_PER REUNION_GUST REUNION_GUST_PER USA_SEAHGT USA_SEARAD_NE USA_SEARAD_SE USA_SEARAD_SW USA_SEARAD_NW STORM_SPEED STORM_DIR
1980226N15339 1980 61 NA NA NOT_NAMED 1980-08-13 00:00:00 TS 15.0000 -21.0000 20 hurdat_atl main 377 377 O_____________ hurdat_atl AL051980 15.0000 -21.0000 TD 20 -1 14 275
1980226N15339 1980 61 NA NA NOT_NAMED 1980-08-13 03:00:00 TS 15.0679 -21.7300 main 453 453 P_____________ AL051980 15.0679 -21.7300 TD 22 -1 15 278
1980226N15339 1980 61 NA NA NOT_NAMED 1980-08-13 06:00:00 TS 15.2000 -22.5000 25 hurdat_atl main 540 540 O_____________ hurdat_atl AL051980 15.2000 -22.5000 TD 25 -1 16 284
1980226N15339 1980 61 NA NA NOT_NAMED 1980-08-13 09:00:00 TS 15.4473 -23.3352 main 627 627 P_____________ AL051980 15.4473 -23.3352 TD 25 -1 17 290
1980226N15339 1980 61 NA NA NOT_NAMED 1980-08-13 12:00:00 TS 15.8000 -24.2000 25 hurdat_atl main 729 729 O_____________ hurdat_atl AL051980 15.8000 -24.2000 TD 25 -1 19 294
1980226N15339 1980 61 NA NA NOT_NAMED 1980-08-13 15:00:00 TS 16.2126 -25.0875 main 831 831 P_____________ AL051980 16.2126 -25.0875 TD 27 -1 19 299
1980226N15339 1980 61 NA NA NOT_NAMED 1980-08-13 18:00:00 TS 16.7000 -25.9000 30 hurdat_atl main 926 926 O_____________ hurdat_atl AL051980 16.7000 -25.9000 TD 30 -1 17 307
1980226N15339 1980 61 NA NA NOT_NAMED 1980-08-13 21:00:00 TS 17.2416 -26.5082 main 1002 1002 P_____________ AL051980 17.2416 -26.5082 TD 30 -1 16 314
1980226N15339 1980 61 NA NA NOT_NAMED 1980-08-14 00:00:00 TS 17.8000 -27.1000 30 hurdat_atl main 1082 1082 O_____________ hurdat_atl AL051980 17.8000 -27.1000 TD 30 -1 17 309
1980226N15339 1980 61 NA NA NOT_NAMED 1980-08-14 03:00:00 TS 18.2928 -27.8928 main 1165 1165 P_____________ AL051980 18.2928 -27.8928 TD 30 -1 18 303
1980226N15339 1980 61 NA NA NOT_NAMED 1980-08-14 06:00:00 TS 18.8000 -28.7000 30 hurdat_atl main 1233 1233 O_____________ hurdat_atl AL051980 18.8000 -28.7000 TD 30 -1 18 309
1980226N15339 1980 61 NA NA NOT_NAMED 1980-08-14 09:00:00 TS 19.3992 -29.3431 main 1283 1283 P_____________ AL051980 19.3992 -29.3431 TD 30 -1 17 314
1980226N15339 1980 61 NA NA NOT_NAMED 1980-08-14 12:00:00 TS 20.0000 -30.0000 30 hurdat_atl main 1346 1346 O_____________ hurdat_atl AL051980 20.0000 -30.0000 TD 30 -1 18 308
1980226N15339 1980 61 NA NA NOT_NAMED 1980-08-14 15:00:00 TS 20.5154 -30.8502 main 1435 1434 P_____________ AL051980 20.5154 -30.8502 TD 30 -1 19 302
1980226N15339 1980 61 NA NA NOT_NAMED 1980-08-14 18:00:00 TS 21.0000 -31.7000 30 hurdat_atl main 1516 1516 O_____________ hurdat_atl AL051980 21.0000 -31.7000 TD 30 -1 17 304
1980226N15339 1980 61 NA NA NOT_NAMED 1980-08-14 21:00:00 TS 21.4844 -32.3809 main 1587 1587 P_____________ AL051980 21.4844 -32.3809 TD 30 -1 16 310
1980226N15339 1980 61 NA NA NOT_NAMED 1980-08-15 00:00:00 TS 22.0000 -33.0000 30 hurdat_atl main 1649 1649 O_____________ hurdat_atl AL051980 22.0000 -33.0000 TD 30 -1 16 313
1980226N15339 1980 61 NA NA NOT_NAMED 1980-08-15 03:00:00 TS 22.5545 -33.6287 main 1709 1709 P_____________ AL051980 22.5545 -33.6287 TD 30 -1 17 315
1980226N15339 1980 61 NA NA NOT_NAMED 1980-08-15 06:00:00 TS 23.2000 -34.3000 30 hurdat_atl main 1782 1782 O_____________ hurdat_atl AL051980 23.2000 -34.3000 TD 30 -1 19 315
1980226N15339 1980 61 NA NA NOT_NAMED 1980-08-15 09:00:00 TS 23.9028 -35.1009 main 1867 1867 P_____________ AL051980 23.9028 -35.1009 TD 30 -1 22 318
1980226N15339 1980 61 NA NA NOT_NAMED 1980-08-15 12:00:00 TS 24.8000 -35.9000 30 hurdat_atl main 1934 1931 O_____________ hurdat_atl AL051980 24.8000 -35.9000 TD 30 -1 25 325
1980226N15339 1980 61 NA NA NOT_NAMED 1980-08-15 15:00:00 TS 25.9679 -36.7109 main 1980 1980 P_____________ AL051980 25.9679 -36.7109 TD 30 -1 28 335
1980226N15339 1980 61 NA NA NOT_NAMED 1980-08-15 18:00:00 TS 27.3000 -37.2000 30 hurdat_atl main 2005 1989 O_____________ hurdat_atl AL051980 27.3000 -37.2000 TD 30 -1 28 352
1980226N15339 1980 61 NA NA NOT_NAMED 1980-08-15 21:00:00 TS 28.6781 -37.1630 main 1989 1927 P_____________ AL051980 28.6781 -37.1630 TD 30 -1 28 11
1980226N15339 1980 61 NA NA NOT_NAMED 1980-08-16 00:00:00 TS 30.0000 -36.6000 30 hurdat_atl main 1927 1847 O_____________ hurdat_atl AL051980 30.0000 -36.6000 TD 30 -1 28 28
1980226N15339 1980 61 NA NA NOT_NAMED 1980-08-16 03:00:00 TS 31.1256 -35.6436 main 1837 1746 P_____________ AL051980 31.1256 -35.6436 TD 27 -1 28 42
1980226N15339 1980 61 NA NA NOT_NAMED 1980-08-16 06:00:00 TS 32.1000 -34.4000 25 hurdat_atl main 1739 1656 O_____________ hurdat_atl AL051980 32.1000 -34.4000 TD 25 -1 28 48
1980226N15339 1980 61 NA NA NOT_NAMED 1980-08-16 09:00:00 TS 33.0009 -33.1998 main 1649 1568 P_____________ AL051980 33.0009 -33.1998 TD 25 -1 27 51
1980226N15339 1980 61 NA NA NOT_NAMED 1980-08-16 12:00:00 TS 33.8000 -31.9000 25 hurdat_atl main 1559 1472 O_____________ hurdat_atl AL051980 33.8000 -31.9000 TD 25 -1 27 56
1980226N15339 1980 61 NA NA NOT_NAMED 1980-08-16 15:00:00 TS 34.5146 -30.4696 main 1468 1391 P_____________ AL051980 34.5146 -30.4696 TD 25 -1 28 60
1980226N15339 1980 61 NA NA NOT_NAMED 1980-08-16 18:00:00 TS 35.2000 -29.0000 25 hurdat_atl main 1383 1328 O_____________ hurdat_atl AL051980 35.2000 -29.0000 TD 25 -1 27 59
1980226N15339 1980 61 NA NA NOT_NAMED 1980-08-16 21:00:00 TS 35.9349 -27.5858 main 1321 1288 P_____________ AL051980 35.9349 -27.5858 TD 22 -1 27 57
1980226N15339 1980 61 NA NA NOT_NAMED 1980-08-17 00:00:00 TS 36.7000 -26.2000 20 hurdat_atl main 1283 O_____________ hurdat_atl AL051980 36.7000 -26.2000 TD 20 -1 27 55

IBTrACS Databaseについて

本データベースは、米国NOAAが公開する1842年以降の世界の熱帯低気圧のベストトラックデータアーカイブInternational Best Track Archive for Climate Stewardship (IBTrACS)を、ウェブで閲覧しやすい形式に変換したものです。

最終更新日:2021-10-21